sensor_id;sensor_type;location;lat;lon;timestamp;P1;durP1;ratioP1;P2;durP2;ratioP2
53833;SDS011;39735;51.432;5.482;2022-12-20T00:00:41;7.53;;;2.55;;
53833;SDS011;39735;51.432;5.482;2022-12-20T00:03:07;4.82;;;2.10;;
53833;SDS011;39735;51.432;5.482;2022-12-20T00:05:35;3.30;;;1.90;;
53833;SDS011;39735;51.432;5.482;2022-12-20T00:08:01;2.95;;;2.75;;
53833;SDS011;39735;51.432;5.482;2022-12-20T00:10:26;6.55;;;2.83;;
53833;SDS011;39735;51.432;5.482;2022-12-20T00:12:51;4.20;;;1.70;;
53833;SDS011;39735;51.432;5.482;2022-12-20T00:15:17;4.88;;;1.40;;
53833;SDS011;39735;51.432;5.482;2022-12-20T00:17:42;2.67;;;1.45;;
53833;SDS011;39735;51.432;5.482;2022-12-20T00:20:07;5.00;;;2.83;;
53833;SDS011;39735;51.432;5.482;2022-12-20T00:22:33;28.45;;;2.50;;
53833;SDS011;39735;51.432;5.482;2022-12-20T00:24:59;5.38;;;2.00;;
53833;SDS011;39735;51.432;5.482;2022-12-20T00:27:24;5.88;;;1.90;;
53833;SDS011;39735;51.432;5.482;2022-12-20T00:29:49;2.15;;;1.95;;
53833;SDS011;39735;51.432;5.482;2022-12-20T00:32:14;7.30;;;2.20;;
53833;SDS011;39735;51.432;5.482;2022-12-20T00:34:40;3.65;;;1.73;;
53833;SDS011;39735;51.432;5.482;2022-12-20T00:37:05;3.20;;;2.90;;
53833;SDS011;39735;51.432;5.482;2022-12-20T00:39:31;7.63;;;2.50;;
53833;SDS011;39735;51.432;5.482;2022-12-20T00:41:56;4.88;;;2.03;;
53833;SDS011;39735;51.432;5.482;2022-12-20T00:44:21;4.43;;;2.63;;
53833;SDS011;39735;51.432;5.482;2022-12-20T00:46:47;5.85;;;2.05;;
53833;SDS011;39735;51.432;5.482;2022-12-20T00:49:12;1.92;;;1.75;;
53833;SDS011;39735;51.432;5.482;2022-12-20T00:51:37;2.15;;;1.70;;
53833;SDS011;39735;51.432;5.482;2022-12-20T00:54:03;5.78;;;2.35;;
53833;SDS011;39735;51.432;5.482;2022-12-20T00:56:28;6.78;;;1.90;;
53833;SDS011;39735;51.432;5.482;2022-12-20T00:58:53;6.10;;;1.92;;
53833;SDS011;39735;51.432;5.482;2022-12-20T01:01:24;5.63;;;2.30;;
53833;SDS011;39735;51.432;5.482;2022-12-20T01:03:51;3.50;;;2.55;;
53833;SDS011;39735;51.432;5.482;2022-12-20T01:06:17;3.97;;;1.63;;
53833;SDS011;39735;51.432;5.482;2022-12-20T01:08:43;7.25;;;2.88;;
53833;SDS011;39735;51.432;5.482;2022-12-20T01:11:13;5.95;;;2.53;;
53833;SDS011;39735;51.432;5.482;2022-12-20T01:13:44;3.50;;;2.00;;
53833;SDS011;39735;51.432;5.482;2022-12-20T01:16:12;7.75;;;3.60;;
53833;SDS011;39735;51.432;5.482;2022-12-20T01:18:37;5.70;;;2.30;;
53833;SDS011;39735;51.432;5.482;2022-12-20T01:21:03;6.15;;;1.85;;
53833;SDS011;39735;51.432;5.482;2022-12-20T01:23:30;1.55;;;1.45;;
53833;SDS011;39735;51.432;5.482;2022-12-20T01:25:59;1.70;;;1.60;;
53833;SDS011;39735;51.432;5.482;2022-12-20T01:28:25;5.03;;;1.98;;
53833;SDS011;39735;51.432;5.482;2022-12-20T01:30:51;3.10;;;1.90;;
53833;SDS011;39735;51.432;5.482;2022-12-20T01:33:16;3.78;;;2.13;;
53833;SDS011;39735;51.432;5.482;2022-12-20T01:35:42;8.95;;;1.95;;
53833;SDS011;39735;51.432;5.482;2022-12-20T01:38:07;3.45;;;2.50;;
53833;SDS011;39735;51.432;5.482;2022-12-20T01:40:32;4.40;;;2.53;;
53833;SDS011;39735;51.432;5.482;2022-12-20T01:42:58;8.10;;;4.68;;
53833;SDS011;39735;51.432;5.482;2022-12-20T01:45:28;4.22;;;2.00;;
53833;SDS011;39735;51.432;5.482;2022-12-20T01:47:54;6.00;;;2.95;;
53833;SDS011;39735;51.432;5.482;2022-12-20T01:50:21;6.40;;;2.67;;
53833;SDS011;39735;51.432;5.482;2022-12-20T01:52:46;12.43;;;2.50;;
53833;SDS011;39735;51.432;5.482;2022-12-20T01:55:14;7.10;;;2.25;;
53833;SDS011;39735;51.432;5.482;2022-12-20T01:57:55;2.08;;;1.90;;
53833;SDS011;39735;51.432;5.482;2022-12-20T02:00:22;2.65;;;2.42;;
53833;SDS011;39735;51.432;5.482;2022-12-20T02:02:48;5.95;;;3.15;;
53833;SDS011;39735;51.432;5.482;2022-12-20T02:05:14;3.55;;;2.42;;
53833;SDS011;39735;51.432;5.482;2022-12-20T02:07:41;4.47;;;2.15;;
53833;SDS011;39735;51.432;5.482;2022-12-20T02:10:08;5.78;;;1.98;;
53833;SDS011;39735;51.432;5.482;2022-12-20T02:12:37;3.13;;;2.20;;
53833;SDS011;39735;51.432;5.482;2022-12-20T02:31:43;5.60;;;3.10;;
53833;SDS011;39735;51.432;5.482;2022-12-20T02:34:14;6.57;;;2.35;;
53833;SDS011;39735;51.432;5.482;2022-12-20T02:36:40;2.72;;;2.30;;
53833;SDS011;39735;51.432;5.482;2022-12-20T02:39:06;5.65;;;1.90;;
53833;SDS011;39735;51.432;5.482;2022-12-20T02:41:33;2.78;;;2.58;;
53833;SDS011;39735;51.432;5.482;2022-12-20T02:44:14;2.95;;;1.67;;
53833;SDS011;39735;51.432;5.482;2022-12-20T02:46:59;9.70;;;2.67;;
53833;SDS011;39735;51.432;5.482;2022-12-20T02:49:28;4.03;;;2.75;;
53833;SDS011;39735;51.432;5.482;2022-12-20T02:51:55;15.95;;;3.72;;
53833;SDS011;39735;51.432;5.482;2022-12-20T02:54:21;3.63;;;2.42;;
53833;SDS011;39735;51.432;5.482;2022-12-20T02:57:00;3.35;;;2.25;;
53833;SDS011;39735;51.432;5.482;2022-12-20T02:59:45;5.50;;;1.95;;
53833;SDS011;39735;51.432;5.482;2022-12-20T03:02:13;1.63;;;1.52;;
53833;SDS011;39735;51.432;5.482;2022-12-20T03:04:39;10.57;;;2.20;;
53833;SDS011;39735;51.432;5.482;2022-12-20T03:07:07;3.92;;;1.90;;
53833;SDS011;39735;51.432;5.482;2022-12-20T03:09:35;1.45;;;1.45;;
53833;SDS011;39735;51.432;5.482;2022-12-20T03:12:02;8.63;;;2.92;;
53833;SDS011;39735;51.432;5.482;2022-12-20T03:14:28;8.77;;;2.47;;
53833;SDS011;39735;51.432;5.482;2022-12-20T03:16:53;8.60;;;1.77;;
53833;SDS011;39735;51.432;5.482;2022-12-20T03:19:18;6.88;;;1.75;;
53833;SDS011;39735;51.432;5.482;2022-12-20T03:21:44;2.60;;;2.17;;
53833;SDS011;39735;51.432;5.482;2022-12-20T03:24:09;6.30;;;2.15;;
53833;SDS011;39735;51.432;5.482;2022-12-20T03:26:35;1.75;;;1.65;;
53833;SDS011;39735;51.432;5.482;2022-12-20T03:29:01;5.95;;;2.08;;
53833;SDS011;39735;51.432;5.482;2022-12-20T03:31:27;8.23;;;2.15;;
53833;SDS011;39735;51.432;5.482;2022-12-20T03:33:52;2.22;;;2.05;;
53833;SDS011;39735;51.432;5.482;2022-12-20T03:36:18;7.13;;;3.60;;
53833;SDS011;39735;51.432;5.482;2022-12-20T03:38:47;9.75;;;2.08;;
53833;SDS011;39735;51.432;5.482;2022-12-20T03:41:13;15.82;;;2.45;;
53833;SDS011;39735;51.432;5.482;2022-12-20T03:43:38;2.83;;;1.92;;
53833;SDS011;39735;51.432;5.482;2022-12-20T03:46:04;2.40;;;1.95;;
53833;SDS011;39735;51.432;5.482;2022-12-20T03:48:29;4.38;;;1.98;;
53833;SDS011;39735;51.432;5.482;2022-12-20T03:50:54;2.92;;;1.90;;
53833;SDS011;39735;51.432;5.482;2022-12-20T03:53:20;2.65;;;1.70;;
53833;SDS011;39735;51.432;5.482;2022-12-20T03:55:45;6.32;;;1.80;;
53833;SDS011;39735;51.432;5.482;2022-12-20T03:58:10;7.38;;;1.80;;
53833;SDS011;39735;51.432;5.482;2022-12-20T04:00:36;6.13;;;1.73;;
53833;SDS011;39735;51.432;5.482;2022-12-20T04:03:02;4.65;;;1.65;;
53833;SDS011;39735;51.432;5.482;2022-12-20T04:05:27;14.15;;;1.75;;
53833;SDS011;39735;51.432;5.482;2022-12-20T04:07:52;2.03;;;1.30;;
53833;SDS011;39735;51.432;5.482;2022-12-20T04:10:18;7.80;;;2.60;;
53833;SDS011;39735;51.432;5.482;2022-12-20T04:12:43;4.40;;;1.63;;
53833;SDS011;39735;51.432;5.482;2022-12-20T04:15:08;4.38;;;1.70;;
53833;SDS011;39735;51.432;5.482;2022-12-20T04:17:34;1.73;;;1.63;;
53833;SDS011;39735;51.432;5.482;2022-12-20T04:19:59;3.85;;;2.08;;
53833;SDS011;39735;51.432;5.482;2022-12-20T04:22:49;12.90;;;3.45;;
53833;SDS011;39735;51.432;5.482;2022-12-20T04:25:16;1.98;;;1.88;;
53833;SDS011;39735;51.432;5.482;2022-12-20T04:27:43;5.35;;;2.15;;
53833;SDS011;39735;51.432;5.482;2022-12-20T04:30:08;3.40;;;1.70;;
53833;SDS011;39735;51.432;5.482;2022-12-20T04:32:34;4.40;;;2.00;;
53833;SDS011;39735;51.432;5.482;2022-12-20T04:35:00;3.90;;;1.65;;
53833;SDS011;39735;51.432;5.482;2022-12-20T04:37:25;1.35;;;1.00;;
53833;SDS011;39735;51.432;5.482;2022-12-20T04:39:51;11.93;;;4.20;;
53833;SDS011;39735;51.432;5.482;2022-12-20T04:42:17;2.22;;;1.63;;
53833;SDS011;39735;51.432;5.482;2022-12-20T04:44:42;14.93;;;2.38;;
53833;SDS011;39735;51.432;5.482;2022-12-20T04:47:07;6.95;;;2.60;;
53833;SDS011;39735;51.432;5.482;2022-12-20T04:49:34;6.88;;;2.25;;
53833;SDS011;39735;51.432;5.482;2022-12-20T04:51:59;3.72;;;1.83;;
53833;SDS011;39735;51.432;5.482;2022-12-20T04:54:45;5.20;;;1.65;;
53833;SDS011;39735;51.432;5.482;2022-12-20T04:57:10;5.28;;;1.63;;
53833;SDS011;39735;51.432;5.482;2022-12-20T04:59:35;7.25;;;2.83;;
53833;SDS011;39735;51.432;5.482;2022-12-20T05:02:01;6.00;;;1.58;;
53833;SDS011;39735;51.432;5.482;2022-12-20T05:04:26;4.75;;;1.70;;
53833;SDS011;39735;51.432;5.482;2022-12-20T05:06:51;9.52;;;3.55;;
53833;SDS011;39735;51.432;5.482;2022-12-20T05:09:17;2.97;;;1.63;;
53833;SDS011;39735;51.432;5.482;2022-12-20T05:11:42;3.70;;;1.95;;
53833;SDS011;39735;51.432;5.482;2022-12-20T05:14:08;3.72;;;2.33;;
53833;SDS011;39735;51.432;5.482;2022-12-20T05:16:34;16.45;;;1.42;;
53833;SDS011;39735;51.432;5.482;2022-12-20T05:18:59;2.33;;;1.13;;
53833;SDS011;39735;51.432;5.482;2022-12-20T05:21:25;5.10;;;1.80;;
53833;SDS011;39735;51.432;5.482;2022-12-20T05:24:09;5.22;;;1.70;;
53833;SDS011;39735;51.432;5.482;2022-12-20T05:26:53;7.80;;;1.67;;
53833;SDS011;39735;51.432;5.482;2022-12-20T05:29:19;6.50;;;1.70;;
53833;SDS011;39735;51.432;5.482;2022-12-20T05:31:44;7.70;;;2.40;;
53833;SDS011;39735;51.432;5.482;2022-12-20T05:34:09;3.95;;;2.25;;
53833;SDS011;39735;51.432;5.482;2022-12-20T05:36:35;8.45;;;1.45;;
53833;SDS011;39735;51.432;5.482;2022-12-20T05:39:00;6.38;;;2.45;;
53833;SDS011;39735;51.432;5.482;2022-12-20T05:41:26;3.13;;;2.10;;
53833;SDS011;39735;51.432;5.482;2022-12-20T05:43:51;4.65;;;2.17;;
53833;SDS011;39735;51.432;5.482;2022-12-20T05:46:16;2.80;;;2.13;;
53833;SDS011;39735;51.432;5.482;2022-12-20T05:48:42;6.72;;;2.53;;
53833;SDS011;39735;51.432;5.482;2022-12-20T05:51:07;1.88;;;1.77;;
53833;SDS011;39735;51.432;5.482;2022-12-20T05:53:33;8.20;;;3.58;;
53833;SDS011;39735;51.432;5.482;2022-12-20T05:55:58;5.82;;;1.75;;
53833;SDS011;39735;51.432;5.482;2022-12-20T05:58:25;4.07;;;3.00;;
53833;SDS011;39735;51.432;5.482;2022-12-20T06:00:50;3.92;;;1.83;;
53833;SDS011;39735;51.432;5.482;2022-12-20T06:03:16;10.55;;;2.28;;
53833;SDS011;39735;51.432;5.482;2022-12-20T06:05:41;8.30;;;3.60;;
53833;SDS011;39735;51.432;5.482;2022-12-20T06:08:08;6.65;;;2.85;;
53833;SDS011;39735;51.432;5.482;2022-12-20T06:10:34;7.70;;;1.75;;
53833;SDS011;39735;51.432;5.482;2022-12-20T06:13:00;6.10;;;2.90;;
53833;SDS011;39735;51.432;5.482;2022-12-20T06:15:26;3.10;;;1.77;;
53833;SDS011;39735;51.432;5.482;2022-12-20T06:17:52;4.00;;;2.72;;
53833;SDS011;39735;51.432;5.482;2022-12-20T06:20:17;13.40;;;2.67;;
53833;SDS011;39735;51.432;5.482;2022-12-20T06:22:43;2.75;;;1.45;;
53833;SDS011;39735;51.432;5.482;2022-12-20T06:25:09;10.32;;;2.25;;
53833;SDS011;39735;51.432;5.482;2022-12-20T06:27:35;3.70;;;2.00;;
53833;SDS011;39735;51.432;5.482;2022-12-20T06:30:01;5.68;;;1.65;;
53833;SDS011;39735;51.432;5.482;2022-12-20T06:32:30;5.32;;;1.98;;
53833;SDS011;39735;51.432;5.482;2022-12-20T06:34:55;6.93;;;2.60;;
53833;SDS011;39735;51.432;5.482;2022-12-20T06:37:20;1.95;;;1.75;;
53833;SDS011;39735;51.432;5.482;2022-12-20T06:39:46;2.70;;;1.85;;
53833;SDS011;39735;51.432;5.482;2022-12-20T06:42:11;8.40;;;2.65;;
53833;SDS011;39735;51.432;5.482;2022-12-20T06:44:36;2.67;;;2.00;;
53833;SDS011;39735;51.432;5.482;2022-12-20T06:47:02;2.22;;;1.33;;
53833;SDS011;39735;51.432;5.482;2022-12-20T06:49:27;4.65;;;1.30;;
53833;SDS011;39735;51.432;5.482;2022-12-20T06:51:53;4.18;;;1.83;;
53833;SDS011;39735;51.432;5.482;2022-12-20T06:54:19;3.10;;;2.83;;
53833;SDS011;39735;51.432;5.482;2022-12-20T06:56:44;12.35;;;2.42;;
53833;SDS011;39735;51.432;5.482;2022-12-20T06:59:10;2.17;;;1.98;;
53833;SDS011;39735;51.432;5.482;2022-12-20T07:01:35;13.43;;;2.50;;
53833;SDS011;39735;51.432;5.482;2022-12-20T07:04:01;1.70;;;1.30;;
53833;SDS011;39735;51.432;5.482;2022-12-20T07:06:26;2.45;;;1.77;;
53833;SDS011;39735;51.432;5.482;2022-12-20T07:08:53;2.33;;;1.85;;
53833;SDS011;39735;51.432;5.482;2022-12-20T07:11:19;12.88;;;2.28;;
53833;SDS011;39735;51.432;5.482;2022-12-20T07:13:44;7.28;;;2.45;;
53833;SDS011;39735;51.432;5.482;2022-12-20T07:16:09;3.30;;;1.75;;
53833;SDS011;39735;51.432;5.482;2022-12-20T07:18:35;4.05;;;2.70;;
53833;SDS011;39735;51.432;5.482;2022-12-20T07:21:01;7.03;;;1.08;;
53833;SDS011;39735;51.432;5.482;2022-12-20T07:23:27;11.65;;;3.35;;
53833;SDS011;39735;51.432;5.482;2022-12-20T07:25:56;4.03;;;2.55;;
53833;SDS011;39735;51.432;5.482;2022-12-20T07:28:23;3.33;;;1.85;;
53833;SDS011;39735;51.432;5.482;2022-12-20T07:30:49;3.90;;;1.73;;
53833;SDS011;39735;51.432;5.482;2022-12-20T07:33:14;4.45;;;2.60;;
53833;SDS011;39735;51.432;5.482;2022-12-20T07:35:40;2.05;;;1.77;;
53833;SDS011;39735;51.432;5.482;2022-12-20T07:38:05;28.35;;;2.53;;
53833;SDS011;39735;51.432;5.482;2022-12-20T07:40:30;4.53;;;1.88;;
53833;SDS011;39735;51.432;5.482;2022-12-20T07:42:56;3.60;;;2.75;;
53833;SDS011;39735;51.432;5.482;2022-12-20T07:45:21;5.22;;;1.40;;
53833;SDS011;39735;51.432;5.482;2022-12-20T07:47:47;12.80;;;2.35;;
53833;SDS011;39735;51.432;5.482;2022-12-20T07:50:12;6.15;;;2.42;;
53833;SDS011;39735;51.432;5.482;2022-12-20T07:52:38;9.55;;;1.58;;
53833;SDS011;39735;51.432;5.482;2022-12-20T07:55:06;11.65;;;2.65;;
53833;SDS011;39735;51.432;5.482;2022-12-20T07:57:42;4.75;;;1.88;;
53833;SDS011;39735;51.432;5.482;2022-12-20T08:00:19;5.47;;;3.05;;
53833;SDS011;39735;51.432;5.482;2022-12-20T08:02:48;5.07;;;1.85;;
53833;SDS011;39735;51.432;5.482;2022-12-20T08:05:17;5.00;;;1.63;;
53833;SDS011;39735;51.432;5.482;2022-12-20T08:07:42;10.18;;;1.33;;
53833;SDS011;39735;51.432;5.482;2022-12-20T08:10:08;3.17;;;1.35;;
53833;SDS011;39735;51.432;5.482;2022-12-20T08:12:35;11.75;;;1.35;;
53833;SDS011;39735;51.432;5.482;2022-12-20T08:15:02;0.98;;;0.98;;
53833;SDS011;39735;51.432;5.482;2022-12-20T08:17:28;2.88;;;1.20;;
53833;SDS011;39735;51.432;5.482;2022-12-20T08:19:53;6.43;;;2.15;;
53833;SDS011;39735;51.432;5.482;2022-12-20T08:22:18;19.38;;;1.75;;
53833;SDS011;39735;51.432;5.482;2022-12-20T08:24:44;4.63;;;1.38;;
53833;SDS011;39735;51.432;5.482;2022-12-20T08:27:10;2.58;;;1.38;;
53833;SDS011;39735;51.432;5.482;2022-12-20T08:29:35;3.20;;;2.83;;
53833;SDS011;39735;51.432;5.482;2022-12-20T08:32:00;4.38;;;1.13;;
53833;SDS011;39735;51.432;5.482;2022-12-20T08:34:26;2.95;;;1.55;;
53833;SDS011;39735;51.432;5.482;2022-12-20T08:36:51;4.03;;;1.80;;
53833;SDS011;39735;51.432;5.482;2022-12-20T08:39:17;3.83;;;2.83;;
53833;SDS011;39735;51.432;5.482;2022-12-20T08:41:42;6.38;;;1.83;;
53833;SDS011;39735;51.432;5.482;2022-12-20T08:44:07;2.38;;;1.13;;
53833;SDS011;39735;51.432;5.482;2022-12-20T08:46:34;4.38;;;2.13;;
53833;SDS011;39735;51.432;5.482;2022-12-20T08:49:01;5.45;;;2.00;;
53833;SDS011;39735;51.432;5.482;2022-12-20T08:51:27;1.13;;;1.10;;
53833;SDS011;39735;51.432;5.482;2022-12-20T08:53:53;7.65;;;2.30;;
53833;SDS011;39735;51.432;5.482;2022-12-20T08:56:18;2.53;;;1.70;;
53833;SDS011;39735;51.432;5.482;2022-12-20T08:58:44;10.68;;;0.98;;
53833;SDS011;39735;51.432;5.482;2022-12-20T09:01:11;5.85;;;1.88;;
53833;SDS011;39735;51.432;5.482;2022-12-20T09:03:41;12.90;;;2.58;;
53833;SDS011;39735;51.432;5.482;2022-12-20T09:06:07;6.32;;;2.15;;
53833;SDS011;39735;51.432;5.482;2022-12-20T09:08:35;10.13;;;2.00;;
53833;SDS011;39735;51.432;5.482;2022-12-20T09:11:05;6.88;;;1.40;;
53833;SDS011;39735;51.432;5.482;2022-12-20T09:13:32;7.55;;;1.80;;
53833;SDS011;39735;51.432;5.482;2022-12-20T09:16:06;12.93;;;1.90;;
53833;SDS011;39735;51.432;5.482;2022-12-20T09:18:32;5.70;;;1.88;;
53833;SDS011;39735;51.432;5.482;2022-12-20T09:20:58;17.15;;;2.47;;
53833;SDS011;39735;51.432;5.482;2022-12-20T09:23:28;5.45;;;1.33;;
53833;SDS011;39735;51.432;5.482;2022-12-20T09:25:54;1.52;;;1.10;;
53833;SDS011;39735;51.432;5.482;2022-12-20T09:28:20;10.88;;;3.20;;
53833;SDS011;39735;51.432;5.482;2022-12-20T09:30:46;6.25;;;2.42;;
53833;SDS011;39735;51.432;5.482;2022-12-20T09:33:11;8.40;;;2.40;;
53833;SDS011;39735;51.432;5.482;2022-12-20T09:35:43;5.00;;;1.60;;
53833;SDS011;39735;51.432;5.482;2022-12-20T09:38:09;2.95;;;1.65;;
53833;SDS011;39735;51.432;5.482;2022-12-20T09:40:34;4.13;;;1.48;;
53833;SDS011;39735;51.432;5.482;2022-12-20T09:43:02;26.05;;;3.05;;
53833;SDS011;39735;51.432;5.482;2022-12-20T09:45:28;13.60;;;1.15;;
53833;SDS011;39735;51.432;5.482;2022-12-20T09:47:59;6.07;;;1.60;;
53833;SDS011;39735;51.432;5.482;2022-12-20T09:50:38;2.08;;;1.67;;
53833;SDS011;39735;51.432;5.482;2022-12-20T09:53:13;5.00;;;1.17;;
53833;SDS011;39735;51.432;5.482;2022-12-20T09:55:49;27.15;;;3.85;;
53833;SDS011;39735;51.432;5.482;2022-12-20T09:58:25;12.13;;;2.28;;
53833;SDS011;39735;51.432;5.482;2022-12-20T10:00:55;11.45;;;2.60;;
53833;SDS011;39735;51.432;5.482;2022-12-20T10:03:23;3.17;;;1.88;;
53833;SDS011;39735;51.432;5.482;2022-12-20T10:05:52;2.03;;;1.52;;
53833;SDS011;39735;51.432;5.482;2022-12-20T10:08:41;7.88;;;2.80;;
53833;SDS011;39735;51.432;5.482;2022-12-20T10:16:50;3.55;;;1.83;;
53833;SDS011;39735;51.432;5.482;2022-12-20T10:22:07;6.22;;;1.83;;
53833;SDS011;39735;51.432;5.482;2022-12-20T10:24:40;4.38;;;1.45;;
53833;SDS011;39735;51.432;5.482;2022-12-20T10:27:14;11.93;;;3.17;;
53833;SDS011;39735;51.432;5.482;2022-12-20T10:29:40;1.95;;;1.58;;
53833;SDS011;39735;51.432;5.482;2022-12-20T10:32:14;5.53;;;2.45;;
53833;SDS011;39735;51.432;5.482;2022-12-20T10:34:51;20.30;;;2.28;;
53833;SDS011;39735;51.432;5.482;2022-12-20T10:37:20;5.10;;;1.50;;
53833;SDS011;39735;51.432;5.482;2022-12-20T10:39:46;5.70;;;2.15;;
53833;SDS011;39735;51.432;5.482;2022-12-20T10:45:03;14.63;;;1.80;;
53833;SDS011;39735;51.432;5.482;2022-12-20T10:47:45;5.72;;;1.83;;
53833;SDS011;39735;51.432;5.482;2022-12-20T10:50:21;6.03;;;2.15;;
53833;SDS011;39735;51.432;5.482;2022-12-20T10:55:38;8.07;;;1.52;;
53833;SDS011;39735;51.432;5.482;2022-12-20T10:58:11;4.75;;;1.92;;
53833;SDS011;39735;51.432;5.482;2022-12-20T11:00:37;7.82;;;2.13;;
53833;SDS011;39735;51.432;5.482;2022-12-20T11:03:21;8.15;;;2.30;;
53833;SDS011;39735;51.432;5.482;2022-12-20T11:05:56;4.38;;;1.92;;
53833;SDS011;39735;51.432;5.482;2022-12-20T11:08:23;4.38;;;2.03;;
53833;SDS011;39735;51.432;5.482;2022-12-20T11:10:50;4.50;;;1.95;;
53833;SDS011;39735;51.432;5.482;2022-12-20T11:13:23;5.97;;;2.05;;
53833;SDS011;39735;51.432;5.482;2022-12-20T11:15:51;8.02;;;2.60;;
53833;SDS011;39735;51.432;5.482;2022-12-20T11:21:26;5.38;;;1.58;;
53833;SDS011;39735;51.432;5.482;2022-12-20T11:25:04;8.10;;;2.17;;
53833;SDS011;39735;51.432;5.482;2022-12-20T11:29:58;15.20;;;2.80;;
53833;SDS011;39735;51.432;5.482;2022-12-20T11:32:53;14.85;;;3.38;;
53833;SDS011;39735;51.432;5.482;2022-12-20T11:40:50;1.83;;;1.63;;
53833;SDS011;39735;51.432;5.482;2022-12-20T11:52:09;2.97;;;2.38;;
53833;SDS011;39735;51.432;5.482;2022-12-20T11:55:38;1.90;;;1.80;;
53833;SDS011;39735;51.432;5.482;2022-12-20T12:00:39;6.20;;;2.92;;
53833;SDS011;39735;51.432;5.482;2022-12-20T12:03:13;5.00;;;2.20;;
53833;SDS011;39735;51.432;5.482;2022-12-20T12:06:21;14.07;;;4.38;;
53833;SDS011;39735;51.432;5.482;2022-12-20T12:11:34;11.07;;;2.70;;
53833;SDS011;39735;51.432;5.482;2022-12-20T12:14:02;12.82;;;2.75;;
53833;SDS011;39735;51.432;5.482;2022-12-20T12:16:39;9.60;;;2.55;;
53833;SDS011;39735;51.432;5.482;2022-12-20T12:19:07;4.63;;;1.83;;
53833;SDS011;39735;51.432;5.482;2022-12-20T12:21:38;6.00;;;2.75;;
53833;SDS011;39735;51.432;5.482;2022-12-20T12:26:54;16.80;;;6.53;;
53833;SDS011;39735;51.432;5.482;2022-12-20T12:29:20;4.18;;;2.20;;
53833;SDS011;39735;51.432;5.482;2022-12-20T12:31:51;6.43;;;2.00;;
53833;SDS011;39735;51.432;5.482;2022-12-20T12:37:12;6.68;;;2.90;;
53833;SDS011;39735;51.432;5.482;2022-12-20T12:40:09;3.33;;;2.13;;
53833;SDS011;39735;51.432;5.482;2022-12-20T12:45:42;7.60;;;2.30;;
53833;SDS011;39735;51.432;5.482;2022-12-20T12:48:16;4.65;;;2.85;;
53833;SDS011;39735;51.432;5.482;2022-12-20T12:50:44;7.75;;;2.65;;
53833;SDS011;39735;51.432;5.482;2022-12-20T12:53:15;4.68;;;2.90;;
53833;SDS011;39735;51.432;5.482;2022-12-20T12:55:46;7.47;;;3.25;;
53833;SDS011;39735;51.432;5.482;2022-12-20T13:03:37;11.85;;;2.42;;
53833;SDS011;39735;51.432;5.482;2022-12-20T13:16:38;5.10;;;2.60;;
53833;SDS011;39735;51.432;5.482;2022-12-20T13:19:12;4.40;;;2.58;;
53833;SDS011;39735;51.432;5.482;2022-12-20T13:21:39;11.07;;;3.33;;
53833;SDS011;39735;51.432;5.482;2022-12-20T13:27:01;3.78;;;2.88;;
53833;SDS011;39735;51.432;5.482;2022-12-20T13:29:42;9.85;;;3.25;;
53833;SDS011;39735;51.432;5.482;2022-12-20T13:32:57;10.85;;;3.40;;
53833;SDS011;39735;51.432;5.482;2022-12-20T13:37:50;17.48;;;2.95;;
53833;SDS011;39735;51.432;5.482;2022-12-20T13:43:15;5.47;;;3.25;;
53833;SDS011;39735;51.432;5.482;2022-12-20T13:45:50;19.42;;;3.22;;
53833;SDS011;39735;51.432;5.482;2022-12-20T13:48:30;7.65;;;2.75;;
53833;SDS011;39735;51.432;5.482;2022-12-20T13:51:00;2.90;;;2.70;;
53833;SDS011;39735;51.432;5.482;2022-12-20T13:53:26;6.50;;;4.18;;
53833;SDS011;39735;51.432;5.482;2022-12-20T13:55:52;38.22;;;4.30;;
53833;SDS011;39735;51.432;5.482;2022-12-20T13:58:25;5.03;;;3.03;;
53833;SDS011;39735;51.432;5.482;2022-12-20T14:00:52;10.18;;;4.40;;
53833;SDS011;39735;51.432;5.482;2022-12-20T14:03:20;7.15;;;3.22;;
53833;SDS011;39735;51.432;5.482;2022-12-20T14:05:46;9.07;;;4.18;;
53833;SDS011;39735;51.432;5.482;2022-12-20T14:08:13;4.75;;;2.88;;
53833;SDS011;39735;51.432;5.482;2022-12-20T14:10:40;8.57;;;2.05;;
53833;SDS011;39735;51.432;5.482;2022-12-20T14:13:16;4.70;;;3.33;;
53833;SDS011;39735;51.432;5.482;2022-12-20T14:15:47;8.27;;;3.08;;
53833;SDS011;39735;51.432;5.482;2022-12-20T14:18:21;6.18;;;3.08;;
53833;SDS011;39735;51.432;5.482;2022-12-20T14:20:57;7.97;;;3.47;;
53833;SDS011;39735;51.432;5.482;2022-12-20T14:23:42;13.65;;;3.35;;
53833;SDS011;39735;51.432;5.482;2022-12-20T14:26:10;12.10;;;4.22;;
53833;SDS011;39735;51.432;5.482;2022-12-20T14:28:37;26.90;;;4.22;;
53833;SDS011;39735;51.432;5.482;2022-12-20T14:31:06;13.02;;;4.97;;
53833;SDS011;39735;51.432;5.482;2022-12-20T14:33:45;13.77;;;3.67;;
53833;SDS011;39735;51.432;5.482;2022-12-20T14:38:43;5.05;;;3.15;;
53833;SDS011;39735;51.432;5.482;2022-12-20T14:44:41;12.57;;;3.50;;
53833;SDS011;39735;51.432;5.482;2022-12-20T14:46:52;8.00;;;4.40;;
53833;SDS011;39735;51.432;5.482;2022-12-20T14:49:27;7.68;;;3.15;;
53833;SDS011;39735;51.432;5.482;2022-12-20T15:00:18;7.57;;;2.63;;
53833;SDS011;39735;51.432;5.482;2022-12-20T15:08:16;14.88;;;5.13;;
53833;SDS011;39735;51.432;5.482;2022-12-20T15:13:40;24.98;;;13.13;;
53833;SDS011;39735;51.432;5.482;2022-12-20T15:16:14;22.40;;;10.88;;
53833;SDS011;39735;51.432;5.482;2022-12-20T15:18:44;30.30;;;15.35;;
53833;SDS011;39735;51.432;5.482;2022-12-20T15:21:17;24.55;;;13.00;;
53833;SDS011;39735;51.432;5.482;2022-12-20T15:23:53;42.60;;;19.52;;
53833;SDS011;39735;51.432;5.482;2022-12-20T15:26:22;35.65;;;15.02;;
53833;SDS011;39735;51.432;5.482;2022-12-20T15:28:48;29.92;;;13.38;;
53833;SDS011;39735;51.432;5.482;2022-12-20T15:31:15;16.77;;;8.35;;
53833;SDS011;39735;51.432;5.482;2022-12-20T15:33:42;20.05;;;11.88;;
53833;SDS011;39735;51.432;5.482;2022-12-20T15:36:15;16.35;;;10.63;;
53833;SDS011;39735;51.432;5.482;2022-12-20T15:38:42;17.67;;;7.78;;
53833;SDS011;39735;51.432;5.482;2022-12-20T15:41:08;9.25;;;6.50;;
53833;SDS011;39735;51.432;5.482;2022-12-20T15:43:38;30.27;;;11.73;;
53833;SDS011;39735;51.432;5.482;2022-12-20T15:46:04;28.63;;;14.40;;
53833;SDS011;39735;51.432;5.482;2022-12-20T15:48:29;20.33;;;10.77;;
53833;SDS011;39735;51.432;5.482;2022-12-20T15:50:55;19.08;;;11.40;;
53833;SDS011;39735;51.432;5.482;2022-12-20T15:53:23;18.02;;;8.80;;
53833;SDS011;39735;51.432;5.482;2022-12-20T15:55:52;10.15;;;5.32;;
53833;SDS011;39735;51.432;5.482;2022-12-20T15:58:18;8.18;;;5.30;;
53833;SDS011;39735;51.432;5.482;2022-12-20T16:00:43;9.15;;;4.63;;
53833;SDS011;39735;51.432;5.482;2022-12-20T16:03:13;5.75;;;5.07;;
53833;SDS011;39735;51.432;5.482;2022-12-20T16:05:40;3.88;;;3.47;;
53833;SDS011;39735;51.432;5.482;2022-12-20T16:08:05;17.60;;;5.93;;
53833;SDS011;39735;51.432;5.482;2022-12-20T16:10:31;23.92;;;9.85;;
53833;SDS011;39735;51.432;5.482;2022-12-20T16:12:56;59.38;;;24.10;;
53833;SDS011;39735;51.432;5.482;2022-12-20T16:15:22;44.80;;;16.38;;
53833;SDS011;39735;51.432;5.482;2022-12-20T16:17:47;44.30;;;20.77;;
53833;SDS011;39735;51.432;5.482;2022-12-20T16:20:13;21.58;;;11.77;;
53833;SDS011;39735;51.432;5.482;2022-12-20T16:22:38;22.48;;;11.57;;
53833;SDS011;39735;51.432;5.482;2022-12-20T16:25:04;44.80;;;20.45;;
53833;SDS011;39735;51.432;5.482;2022-12-20T16:27:30;30.10;;;13.73;;
53833;SDS011;39735;51.432;5.482;2022-12-20T16:29:55;27.55;;;16.08;;
53833;SDS011;39735;51.432;5.482;2022-12-20T16:32:20;43.83;;;18.98;;
53833;SDS011;39735;51.432;5.482;2022-12-20T16:34:47;37.85;;;15.65;;
53833;SDS011;39735;51.432;5.482;2022-12-20T16:37:13;38.30;;;18.60;;
53833;SDS011;39735;51.432;5.482;2022-12-20T16:39:39;53.95;;;19.70;;
53833;SDS011;39735;51.432;5.482;2022-12-20T16:42:14;39.35;;;18.20;;